EmailTwitter


Surface observations / Quebec / CYHU (71371)

Regions: Quebec | Canada | USA | Europe | France | UK | Elsewhere
Station
Display
Info & Location for CYHU (71371) | Help decoding METAR

Weather Conditions observed on 2019/01/18 at 03:00 UTC at MONTREAL/ST HUBE, QB (CYHU)

Sky conditions: overcast.

Temperature: -16.0 Celsius.

Dewpoint: -20.0 Celsius.

Relative Humidity: 71%

Windchill Factor: -20.

Winds: East-northeast at 6 km/h or 3 knots.

Mean Sea level Pressure: 102.48 kilopascals.

Altimeter Setting (QNH): 102.44 kilopascals or 30.25 inches of mercury.

Horizontal visibility: 9.00 statute miles or 14.40 kilometers.

Height of the Ceiling: 4572 metres ( 15000 feet ).

Coded METAR:

CYHU 180300Z AUTO 07003KT 9SM FEW120 OVC150 M16/M20 A3025 RMK SLP248=